sensor_id;sensor_type;location;lat;lon;timestamp;temperature;humidity
84440;SHT31;74675;51.980;5.730;2024-03-02T00:01:44;10.9;60.0
84440;SHT31;74675;51.980;5.730;2024-03-02T00:04:12;10.9;60.3
84440;SHT31;74675;51.980;5.730;2024-03-02T00:06:41;10.9;60.0
84440;SHT31;74675;51.980;5.730;2024-03-02T00:09:11;10.9;60.1
84440;SHT31;74675;51.980;5.730;2024-03-02T00:11:40;11.0;60.1
84440;SHT31;74675;51.980;5.730;2024-03-02T00:14:09;11.0;60.0
84440;SHT31;74675;51.980;5.730;2024-03-02T00:16:38;11.0;60.1
84440;SHT31;74675;51.980;5.730;2024-03-02T00:19:09;11.0;59.8
84440;SHT31;74675;51.980;5.730;2024-03-02T00:21:37;11.0;60.1
84440;SHT31;74675;51.980;5.730;2024-03-02T00:24:20;11.0;60.0
84440;SHT31;74675;51.980;5.730;2024-03-02T00:26:51;11.0;59.9
84440;SHT31;74675;51.980;5.730;2024-03-02T00:29:20;11.1;59.7
84440;SHT31;74675;51.980;5.730;2024-03-02T00:31:48;11.1;59.5
84440;SHT31;74675;51.980;5.730;2024-03-02T00:34:17;11.1;59.8
84440;SHT31;74675;51.980;5.730;2024-03-02T00:36:46;11.1;59.6
84440;SHT31;74675;51.980;5.730;2024-03-02T00:39:16;11.1;59.6
84440;SHT31;74675;51.980;5.730;2024-03-02T00:41:45;11.1;59.5
84440;SHT31;74675;51.980;5.730;2024-03-02T00:44:15;11.1;59.5
84440;SHT31;74675;51.980;5.730;2024-03-02T00:46:44;11.2;59.4
84440;SHT31;74675;51.980;5.730;2024-03-02T00:49:18;11.2;59.1
84440;SHT31;74675;51.980;5.730;2024-03-02T00:51:50;11.2;59.3
84440;SHT31;74675;51.980;5.730;2024-03-02T00:54:22;11.2;59.5
84440;SHT31;74675;51.980;5.730;2024-03-02T00:56:52;11.2;59.1
84440;SHT31;74675;51.980;5.730;2024-03-02T00:59:22;11.3;59.1
84440;SHT31;74675;51.980;5.730;2024-03-02T01:01:52;11.3;58.9
84440;SHT31;74675;51.980;5.730;2024-03-02T01:04:20;11.3;59.1
84440;SHT31;74675;51.980;5.730;2024-03-02T01:06:49;11.3;58.9
84440;SHT31;74675;51.980;5.730;2024-03-02T01:09:18;11.2;60.3
84440;SHT31;74675;51.980;5.730;2024-03-02T01:11:47;11.2;61.2
84440;SHT31;74675;51.980;5.730;2024-03-02T01:14:15;11.2;61.7
84440;SHT31;74675;51.980;5.730;2024-03-02T01:16:44;11.1;61.9
84440;SHT31;74675;51.980;5.730;2024-03-02T01:19:12;11.1;62.2
84440;SHT31;74675;51.980;5.730;2024-03-02T01:21:41;11.1;62.7
84440;SHT31;74675;51.980;5.730;2024-03-02T01:24:09;11.0;63.3
84440;SHT31;74675;51.980;5.730;2024-03-02T01:26:39;11.0;63.3
84440;SHT31;74675;51.980;5.730;2024-03-02T01:29:08;11.0;63.5
84440;SHT31;74675;51.980;5.730;2024-03-02T01:31:36;11.0;63.5
84440;SHT31;74675;51.980;5.730;2024-03-02T01:34:06;10.9;64.6
84440;SHT31;74675;51.980;5.730;2024-03-02T01:36:35;10.9;65.2
84440;SHT31;74675;51.980;5.730;2024-03-02T01:39:03;10.9;65.2
84440;SHT31;74675;51.980;5.730;2024-03-02T01:41:35;10.9;65.0
84440;SHT31;74675;51.980;5.730;2024-03-02T01:44:04;10.9;64.9
84440;SHT31;74675;51.980;5.730;2024-03-02T01:46:33;10.9;65.1
84440;SHT31;74675;51.980;5.730;2024-03-02T01:49:02;10.9;65.2
84440;SHT31;74675;51.980;5.730;2024-03-02T01:51:31;10.9;65.1
84440;SHT31;74675;51.980;5.730;2024-03-02T01:53:59;10.8;65.2
84440;SHT31;74675;51.980;5.730;2024-03-02T01:56:28;10.8;65.3
84440;SHT31;74675;51.980;5.730;2024-03-02T01:58:56;10.8;65.2
84440;SHT31;74675;51.980;5.730;2024-03-02T02:01:25;10.8;65.4
84440;SHT31;74675;51.980;5.730;2024-03-02T02:03:54;10.8;65.4
84440;SHT31;74675;51.980;5.730;2024-03-02T02:06:23;10.8;65.4
84440;SHT31;74675;51.980;5.730;2024-03-02T02:08:51;10.8;65.5
84440;SHT31;74675;51.980;5.730;2024-03-02T02:11:20;10.8;65.3
84440;SHT31;74675;51.980;5.730;2024-03-02T02:13:49;10.8;65.5
84440;SHT31;74675;51.980;5.730;2024-03-02T02:16:17;10.8;65.6
84440;SHT31;74675;51.980;5.730;2024-03-02T02:18:46;10.8;65.4
84440;SHT31;74675;51.980;5.730;2024-03-02T02:21:15;10.8;65.3
84440;SHT31;74675;51.980;5.730;2024-03-02T02:23:44;10.8;65.3
84440;SHT31;74675;51.980;5.730;2024-03-02T02:26:12;10.8;65.5
84440;SHT31;74675;51.980;5.730;2024-03-02T02:28:41;10.8;65.5
84440;SHT31;74675;51.980;5.730;2024-03-02T02:31:13;10.8;65.9
84440;SHT31;74675;51.980;5.730;2024-03-02T02:33:42;10.7;65.6
84440;SHT31;74675;51.980;5.730;2024-03-02T02:36:11;10.7;65.4
84440;SHT31;74675;51.980;5.730;2024-03-02T02:38:44;10.7;65.5
84440;SHT31;74675;51.980;5.730;2024-03-02T02:41:13;10.7;65.9
84440;SHT31;74675;51.980;5.730;2024-03-02T02:43:41;10.7;65.9
84440;SHT31;74675;51.980;5.730;2024-03-02T02:46:10;10.7;66.5
84440;SHT31;74675;51.980;5.730;2024-03-02T02:48:39;10.6;67.2
84440;SHT31;74675;51.980;5.730;2024-03-02T02:51:07;10.6;67.4
84440;SHT31;74675;51.980;5.730;2024-03-02T02:53:36;10.6;67.9
84440;SHT31;74675;51.980;5.730;2024-03-02T02:56:07;10.6;67.7
84440;SHT31;74675;51.980;5.730;2024-03-02T02:58:35;10.6;67.6
84440;SHT31;74675;51.980;5.730;2024-03-02T03:01:04;10.5;68.1
84440;SHT31;74675;51.980;5.730;2024-03-02T03:03:34;10.5;68.0
84440;SHT31;74675;51.980;5.730;2024-03-02T03:06:03;10.5;68.6
84440;SHT31;74675;51.980;5.730;2024-03-02T03:08:32;10.4;68.5
84440;SHT31;74675;51.980;5.730;2024-03-02T03:11:00;10.4;69.2
84440;SHT31;74675;51.980;5.730;2024-03-02T03:13:31;10.4;68.7
84440;SHT31;74675;51.980;5.730;2024-03-02T03:16:00;10.4;69.4
84440;SHT31;74675;51.980;5.730;2024-03-02T03:18:29;10.3;69.7
84440;SHT31;74675;51.980;5.730;2024-03-02T03:20:58;10.3;70.2
84440;SHT31;74675;51.980;5.730;2024-03-02T03:23:26;10.3;70.3
84440;SHT31;74675;51.980;5.730;2024-03-02T03:25:55;10.3;70.8
84440;SHT31;74675;51.980;5.730;2024-03-02T03:28:24;10.3;71.1
84440;SHT31;74675;51.980;5.730;2024-03-02T03:30:52;10.3;71.3
84440;SHT31;74675;51.980;5.730;2024-03-02T03:33:23;10.3;70.4
84440;SHT31;74675;51.980;5.730;2024-03-02T03:35:51;10.3;70.7
84440;SHT31;74675;51.980;5.730;2024-03-02T03:38:20;10.3;70.3
84440;SHT31;74675;51.980;5.730;2024-03-02T03:40:48;10.3;70.5
84440;SHT31;74675;51.980;5.730;2024-03-02T03:43:17;10.2;70.5
84440;SHT31;74675;51.980;5.730;2024-03-02T03:45:45;10.2;69.6
84440;SHT31;74675;51.980;5.730;2024-03-02T03:48:14;10.2;69.7
84440;SHT31;74675;51.980;5.730;2024-03-02T03:50:43;10.2;69.6
84440;SHT31;74675;51.980;5.730;2024-03-02T03:53:11;10.2;70.9
84440;SHT31;74675;51.980;5.730;2024-03-02T03:55:41;10.2;70.0
84440;SHT31;74675;51.980;5.730;2024-03-02T03:58:09;10.2;69.9
84440;SHT31;74675;51.980;5.730;2024-03-02T04:00:38;10.2;70.3
84440;SHT31;74675;51.980;5.730;2024-03-02T04:03:08;10.2;70.3
84440;SHT31;74675;51.980;5.730;2024-03-02T04:05:37;10.2;70.2
84440;SHT31;74675;51.980;5.730;2024-03-02T04:08:08;10.2;69.9
84440;SHT31;74675;51.980;5.730;2024-03-02T04:10:37;10.2;69.8
84440;SHT31;74675;51.980;5.730;2024-03-02T04:13:08;10.2;70.0
84440;SHT31;74675;51.980;5.730;2024-03-02T04:15:36;10.2;69.5
84440;SHT31;74675;51.980;5.730;2024-03-02T04:18:06;10.2;69.8
84440;SHT31;74675;51.980;5.730;2024-03-02T04:20:35;10.2;69.8
84440;SHT31;74675;51.980;5.730;2024-03-02T04:23:04;10.1;69.7
84440;SHT31;74675;51.980;5.730;2024-03-02T04:25:34;10.1;68.9
84440;SHT31;74675;51.980;5.730;2024-03-02T04:28:07;10.1;69.2
84440;SHT31;74675;51.980;5.730;2024-03-02T04:30:35;10.1;69.5
84440;SHT31;74675;51.980;5.730;2024-03-02T04:33:04;10.1;69.5
84440;SHT31;74675;51.980;5.730;2024-03-02T04:35:36;10.1;69.4
84440;SHT31;74675;51.980;5.730;2024-03-02T04:38:07;10.1;68.9
84440;SHT31;74675;51.980;5.730;2024-03-02T04:40:35;10.1;68.5
84440;SHT31;74675;51.980;5.730;2024-03-02T04:43:04;10.1;68.4
84440;SHT31;74675;51.980;5.730;2024-03-02T04:45:37;10.1;68.1
84440;SHT31;74675;51.980;5.730;2024-03-02T04:48:06;10.1;68.2
84440;SHT31;74675;51.980;5.730;2024-03-02T04:50:35;10.1;68.1
84440;SHT31;74675;51.980;5.730;2024-03-02T04:53:04;10.0;67.8
84440;SHT31;74675;51.980;5.730;2024-03-02T04:55:32;10.0;68.1
84440;SHT31;74675;51.980;5.730;2024-03-02T04:58:18;10.0;68.5
84440;SHT31;74675;51.980;5.730;2024-03-02T05:00:47;10.0;68.8
84440;SHT31;74675;51.980;5.730;2024-03-02T05:03:16;10.0;67.9
84440;SHT31;74675;51.980;5.730;2024-03-02T05:05:44;10.0;68.3
84440;SHT31;74675;51.980;5.730;2024-03-02T05:08:14;10.0;67.9
84440;SHT31;74675;51.980;5.730;2024-03-02T05:10:43;10.0;67.9
84440;SHT31;74675;51.980;5.730;2024-03-02T05:13:12;10.0;67.9
84440;SHT31;74675;51.980;5.730;2024-03-02T05:15:40;10.0;67.9
84440;SHT31;74675;51.980;5.730;2024-03-02T05:18:09;9.9;68.1
84440;SHT31;74675;51.980;5.730;2024-03-02T05:20:38;9.9;68.4
84440;SHT31;74675;51.980;5.730;2024-03-02T05:23:07;9.9;68.2
84440;SHT31;74675;51.980;5.730;2024-03-02T05:25:35;9.9;68.4
84440;SHT31;74675;51.980;5.730;2024-03-02T05:28:05;9.8;68.6
84440;SHT31;74675;51.980;5.730;2024-03-02T05:30:33;9.8;68.3
84440;SHT31;74675;51.980;5.730;2024-03-02T05:33:02;9.7;68.3
84440;SHT31;74675;51.980;5.730;2024-03-02T05:35:31;9.7;68.3
84440;SHT31;74675;51.980;5.730;2024-03-02T05:37:59;9.6;68.6
84440;SHT31;74675;51.980;5.730;2024-03-02T05:40:28;9.6;68.8
84440;SHT31;74675;51.980;5.730;2024-03-02T05:42:57;9.6;69.1
84440;SHT31;74675;51.980;5.730;2024-03-02T05:45:25;9.6;68.9
84440;SHT31;74675;51.980;5.730;2024-03-02T05:47:54;9.6;69.0
84440;SHT31;74675;51.980;5.730;2024-03-02T05:50:23;9.6;68.6
84440;SHT31;74675;51.980;5.730;2024-03-02T05:52:53;9.5;68.3
84440;SHT31;74675;51.980;5.730;2024-03-02T05:55:22;9.5;68.7
84440;SHT31;74675;51.980;5.730;2024-03-02T05:57:51;9.5;68.1
84440;SHT31;74675;51.980;5.730;2024-03-02T06:00:28;9.5;68.7
84440;SHT31;74675;51.980;5.730;2024-03-02T06:02:57;9.5;68.0
84440;SHT31;74675;51.980;5.730;2024-03-02T06:05:26;9.5;68.4
84440;SHT31;74675;51.980;5.730;2024-03-02T06:07:55;9.5;68.8
84440;SHT31;74675;51.980;5.730;2024-03-02T06:10:23;9.6;67.9
84440;SHT31;74675;51.980;5.730;2024-03-02T06:12:52;9.6;67.6
84440;SHT31;74675;51.980;5.730;2024-03-02T06:15:20;9.6;67.2
84440;SHT31;74675;51.980;5.730;2024-03-02T06:17:49;9.6;67.2
84440;SHT31;74675;51.980;5.730;2024-03-02T06:20:19;9.6;67.0
84440;SHT31;74675;51.980;5.730;2024-03-02T06:22:48;9.6;66.9
84440;SHT31;74675;51.980;5.730;2024-03-02T06:25:17;9.6;66.7
84440;SHT31;74675;51.980;5.730;2024-03-02T06:27:45;9.6;67.0
84440;SHT31;74675;51.980;5.730;2024-03-02T06:30:14;9.5;66.8
84440;SHT31;74675;51.980;5.730;2024-03-02T06:32:43;9.5;67.3
84440;SHT31;74675;51.980;5.730;2024-03-02T06:35:11;9.4;67.3
84440;SHT31;74675;51.980;5.730;2024-03-02T06:37:40;9.4;67.6
84440;SHT31;74675;51.980;5.730;2024-03-02T06:40:09;9.4;67.4
84440;SHT31;74675;51.980;5.730;2024-03-02T06:42:38;9.4;68.0
84440;SHT31;74675;51.980;5.730;2024-03-02T06:45:07;9.4;67.8
84440;SHT31;74675;51.980;5.730;2024-03-02T06:47:36;9.4;68.3
84440;SHT31;74675;51.980;5.730;2024-03-02T06:50:05;9.4;68.1
84440;SHT31;74675;51.980;5.730;2024-03-02T06:52:35;9.4;68.5
84440;SHT31;74675;51.980;5.730;2024-03-02T06:55:05;9.4;67.8
84440;SHT31;74675;51.980;5.730;2024-03-02T06:57:34;9.4;67.6
84440;SHT31;74675;51.980;5.730;2024-03-02T07:00:03;9.4;67.3
84440;SHT31;74675;51.980;5.730;2024-03-02T07:02:35;9.4;67.6
84440;SHT31;74675;51.980;5.730;2024-03-02T07:05:04;9.4;67.5
84440;SHT31;74675;51.980;5.730;2024-03-02T07:07:34;9.4;67.9
84440;SHT31;74675;51.980;5.730;2024-03-02T07:10:03;9.4;68.2
84440;SHT31;74675;51.980;5.730;2024-03-02T07:12:34;9.4;68.2
84440;SHT31;74675;51.980;5.730;2024-03-02T07:15:03;9.4;67.8
84440;SHT31;74675;51.980;5.730;2024-03-02T07:17:52;9.4;68.5
84440;SHT31;74675;51.980;5.730;2024-03-02T07:20:21;9.4;68.1
84440;SHT31;74675;51.980;5.730;2024-03-02T07:22:49;9.4;67.8
84440;SHT31;74675;51.980;5.730;2024-03-02T07:25:18;9.4;67.7
84440;SHT31;74675;51.980;5.730;2024-03-02T07:27:48;9.4;67.6
84440;SHT31;74675;51.980;5.730;2024-03-02T07:30:17;9.4;67.9
84440;SHT31;74675;51.980;5.730;2024-03-02T07:32:45;9.4;67.8
84440;SHT31;74675;51.980;5.730;2024-03-02T07:35:14;9.4;68.1
84440;SHT31;74675;51.980;5.730;2024-03-02T07:37:44;9.4;68.6
84440;SHT31;74675;51.980;5.730;2024-03-02T07:40:14;9.4;68.2
84440;SHT31;74675;51.980;5.730;2024-03-02T07:42:42;9.4;69.0
84440;SHT31;74675;51.980;5.730;2024-03-02T07:45:11;9.4;68.8
84440;SHT31;74675;51.980;5.730;2024-03-02T07:47:40;9.5;68.4
84440;SHT31;74675;51.980;5.730;2024-03-02T07:50:11;9.5;68.7
84440;SHT31;74675;51.980;5.730;2024-03-02T07:52:40;9.5;68.6
84440;SHT31;74675;51.980;5.730;2024-03-02T07:55:09;9.6;69.2
84440;SHT31;74675;51.980;5.730;2024-03-02T07:57:37;9.6;69.1
84440;SHT31;74675;51.980;5.730;2024-03-02T08:00:07;9.6;68.8
84440;SHT31;74675;51.980;5.730;2024-03-02T08:02:36;9.7;68.6
84440;SHT31;74675;51.980;5.730;2024-03-02T08:05:05;9.7;68.5
84440;SHT31;74675;51.980;5.730;2024-03-02T08:07:34;9.8;68.3
84440;SHT31;74675;51.980;5.730;2024-03-02T08:10:03;9.8;68.2
84440;SHT31;74675;51.980;5.730;2024-03-02T08:12:32;9.9;67.4
84440;SHT31;74675;51.980;5.730;2024-03-02T08:15:01;9.9;67.4
84440;SHT31;74675;51.980;5.730;2024-03-02T08:17:29;9.9;66.9
84440;SHT31;74675;51.980;5.730;2024-03-02T08:19:58;10.0;66.9
84440;SHT31;74675;51.980;5.730;2024-03-02T08:22:27;10.0;67.4
84440;SHT31;74675;51.980;5.730;2024-03-02T08:24:58;10.0;66.9
84440;SHT31;74675;51.980;5.730;2024-03-02T08:27:26;10.0;66.4
84440;SHT31;74675;51.980;5.730;2024-03-02T08:29:55;10.1;66.4
84440;SHT31;74675;51.980;5.730;2024-03-02T08:32:24;10.1;66.9
84440;SHT31;74675;51.980;5.730;2024-03-02T08:34:53;10.1;66.2
84440;SHT31;74675;51.980;5.730;2024-03-02T08:37:21;10.1;65.8
84440;SHT31;74675;51.980;5.730;2024-03-02T08:39:50;10.1;66.5
84440;SHT31;74675;51.980;5.730;2024-03-02T08:42:18;10.1;66.1
84440;SHT31;74675;51.980;5.730;2024-03-02T08:44:49;10.1;65.7
84440;SHT31;74675;51.980;5.730;2024-03-02T08:47:18;10.1;65.6
84440;SHT31;74675;51.980;5.730;2024-03-02T08:49:46;10.1;65.2
84440;SHT31;74675;51.980;5.730;2024-03-02T08:52:15;10.2;65.4
84440;SHT31;74675;51.980;5.730;2024-03-02T08:54:43;10.2;65.5
84440;SHT31;74675;51.980;5.730;2024-03-02T08:57:12;10.2;66.1
84440;SHT31;74675;51.980;5.730;2024-03-02T08:59:40;10.2;64.9
84440;SHT31;74675;51.980;5.730;2024-03-02T09:02:10;10.2;64.2
84440;SHT31;74675;51.980;5.730;2024-03-02T09:04:39;10.2;64.0
84440;SHT31;74675;51.980;5.730;2024-03-02T09:07:08;10.2;63.8
84440;SHT31;74675;51.980;5.730;2024-03-02T09:09:36;10.3;63.7
84440;SHT31;74675;51.980;5.730;2024-03-02T09:12:07;10.3;63.8
84440;SHT31;74675;51.980;5.730;2024-03-02T09:14:37;10.3;63.2
84440;SHT31;74675;51.980;5.730;2024-03-02T09:17:05;10.3;63.1
84440;SHT31;74675;51.980;5.730;2024-03-02T09:19:34;10.3;62.6
84440;SHT31;74675;51.980;5.730;2024-03-02T09:22:03;10.3;63.2
84440;SHT31;74675;51.980;5.730;2024-03-02T09:24:32;10.4;63.7
84440;SHT31;74675;51.980;5.730;2024-03-02T09:27:01;10.4;63.6
84440;SHT31;74675;51.980;5.730;2024-03-02T09:29:30;10.4;63.4
84440;SHT31;74675;51.980;5.730;2024-03-02T09:31:59;10.5;62.9
84440;SHT31;74675;51.980;5.730;2024-03-02T09:34:27;10.5;62.7
84440;SHT31;74675;51.980;5.730;2024-03-02T09:36:56;10.5;62.5
84440;SHT31;74675;51.980;5.730;2024-03-02T09:39:25;10.6;62.5
84440;SHT31;74675;51.980;5.730;2024-03-02T09:41:54;10.6;62.7
84440;SHT31;74675;51.980;5.730;2024-03-02T09:44:23;10.6;62.9
84440;SHT31;74675;51.980;5.730;2024-03-02T09:46:53;10.7;62.0
84440;SHT31;74675;51.980;5.730;2024-03-02T09:49:21;10.7;61.9
84440;SHT31;74675;51.980;5.730;2024-03-02T09:51:50;10.7;61.7
84440;SHT31;74675;51.980;5.730;2024-03-02T09:54:18;10.8;62.2
84440;SHT31;74675;51.980;5.730;2024-03-02T09:56:47;10.8;62.3
84440;SHT31;74675;51.980;5.730;2024-03-02T09:59:16;10.9;62.1
84440;SHT31;74675;51.980;5.730;2024-03-02T10:01:57;10.9;61.5
84440;SHT31;74675;51.980;5.730;2024-03-02T10:04:28;11.0;61.3
84440;SHT31;74675;51.980;5.730;2024-03-02T10:07:11;11.0;60.6
84440;SHT31;74675;51.980;5.730;2024-03-02T10:09:41;11.1;60.8
84440;SHT31;74675;51.980;5.730;2024-03-02T10:12:12;11.1;60.7
84440;SHT31;74675;51.980;5.730;2024-03-02T10:14:42;11.1;59.7
84440;SHT31;74675;51.980;5.730;2024-03-02T10:17:12;11.2;60.2
84440;SHT31;74675;51.980;5.730;2024-03-02T10:19:41;11.2;61.3
84440;SHT31;74675;51.980;5.730;2024-03-02T10:22:10;11.3;59.6
84440;SHT31;74675;51.980;5.730;2024-03-02T10:24:40;11.3;59.5
84440;SHT31;74675;51.980;5.730;2024-03-02T10:27:15;11.4;59.5
84440;SHT31;74675;51.980;5.730;2024-03-02T10:29:45;11.5;59.1
84440;SHT31;74675;51.980;5.730;2024-03-02T10:32:15;11.5;58.3
84440;SHT31;74675;51.980;5.730;2024-03-02T10:34:45;11.6;57.9
84440;SHT31;74675;51.980;5.730;2024-03-02T10:37:15;11.6;58.3
84440;SHT31;74675;51.980;5.730;2024-03-02T10:39:46;11.6;57.4
84440;SHT31;74675;51.980;5.730;2024-03-02T10:42:15;11.7;57.2
84440;SHT31;74675;51.980;5.730;2024-03-02T10:44:45;11.8;58.3
84440;SHT31;74675;51.980;5.730;2024-03-02T10:47:15;11.8;57.4
84440;SHT31;74675;51.980;5.730;2024-03-02T10:49:47;11.9;56.6
84440;SHT31;74675;51.980;5.730;2024-03-02T10:52:17;11.9;56.3
84440;SHT31;74675;51.980;5.730;2024-03-02T10:54:46;11.9;56.0
84440;SHT31;74675;51.980;5.730;2024-03-02T10:57:16;12.0;56.3
84440;SHT31;74675;51.980;5.730;2024-03-02T10:59:52;12.0;56.3
84440;SHT31;74675;51.980;5.730;2024-03-02T11:02:26;12.0;57.0
84440;SHT31;74675;51.980;5.730;2024-03-02T11:04:56;12.1;56.7
84440;SHT31;74675;51.980;5.730;2024-03-02T11:07:28;12.1;56.9
84440;SHT31;74675;51.980;5.730;2024-03-02T11:10:01;12.2;55.6
84440;SHT31;74675;51.980;5.730;2024-03-02T11:12:38;12.3;54.3
84440;SHT31;74675;51.980;5.730;2024-03-02T11:15:10;12.3;55.0
84440;SHT31;74675;51.980;5.730;2024-03-02T11:17:40;12.4;54.6
84440;SHT31;74675;51.980;5.730;2024-03-02T11:20:10;12.4;54.3
84440;SHT31;74675;51.980;5.730;2024-03-02T11:22:39;12.5;54.1
84440;SHT31;74675;51.980;5.730;2024-03-02T11:25:24;12.5;53.3
84440;SHT31;74675;51.980;5.730;2024-03-02T11:28:06;12.6;54.5
84440;SHT31;74675;51.980;5.730;2024-03-02T11:30:51;12.6;54.1
84440;SHT31;74675;51.980;5.730;2024-03-02T11:33:26;12.7;53.7
84440;SHT31;74675;51.980;5.730;2024-03-02T11:35:58;12.8;54.1
84440;SHT31;74675;51.980;5.730;2024-03-02T11:38:34;12.8;55.1
84440;SHT31;74675;51.980;5.730;2024-03-02T11:41:06;12.9;54.8
84440;SHT31;74675;51.980;5.730;2024-03-02T11:43:37;12.9;53.8
84440;SHT31;74675;51.980;5.730;2024-03-02T11:46:08;13.0;53.4
84440;SHT31;74675;51.980;5.730;2024-03-02T11:48:39;13.0;53.5
84440;SHT31;74675;51.980;5.730;2024-03-02T11:51:07;13.1;53.7
84440;SHT31;74675;51.980;5.730;2024-03-02T11:53:38;13.1;53.0
84440;SHT31;74675;51.980;5.730;2024-03-02T11:56:11;13.2;52.5
84440;SHT31;74675;51.980;5.730;2024-03-02T11:58:40;13.2;51.5
84440;SHT31;74675;51.980;5.730;2024-03-02T12:01:10;13.3;52.4
84440;SHT31;74675;51.980;5.730;2024-03-02T12:03:40;13.3;51.7
84440;SHT31;74675;51.980;5.730;2024-03-02T12:06:09;13.4;51.6
84440;SHT31;74675;51.980;5.730;2024-03-02T12:08:40;13.4;51.6
84440;SHT31;74675;51.980;5.730;2024-03-02T12:11:13;13.4;50.7
84440;SHT31;74675;51.980;5.730;2024-03-02T12:13:55;13.4;51.9
84440;SHT31;74675;51.980;5.730;2024-03-02T12:16:25;13.5;51.5
84440;SHT31;74675;51.980;5.730;2024-03-02T12:18:54;13.5;51.4
84440;SHT31;74675;51.980;5.730;2024-03-02T12:21:23;13.6;50.2
84440;SHT31;74675;51.980;5.730;2024-03-02T12:23:52;13.7;48.9
84440;SHT31;74675;51.980;5.730;2024-03-02T12:26:22;13.7;48.8
84440;SHT31;74675;51.980;5.730;2024-03-02T12:28:51;13.8;50.2
84440;SHT31;74675;51.980;5.730;2024-03-02T12:31:20;13.9;49.8
84440;SHT31;74675;51.980;5.730;2024-03-02T12:33:49;14.0;49.7
84440;SHT31;74675;51.980;5.730;2024-03-02T12:36:18;14.1;49.8
84440;SHT31;74675;51.980;5.730;2024-03-02T12:38:47;14.2;49.1
84440;SHT31;74675;51.980;5.730;2024-03-02T12:41:17;14.2;48.4
84440;SHT31;74675;51.980;5.730;2024-03-02T12:43:45;14.3;47.5
84440;SHT31;74675;51.980;5.730;2024-03-02T12:46:14;14.3;47.8
84440;SHT31;74675;51.980;5.730;2024-03-02T12:48:43;14.4;46.9
84440;SHT31;74675;51.980;5.730;2024-03-02T12:51:12;14.4;46.6
84440;SHT31;74675;51.980;5.730;2024-03-02T12:53:41;14.5;46.6
84440;SHT31;74675;51.980;5.730;2024-03-02T12:56:10;14.5;46.8
84440;SHT31;74675;51.980;5.730;2024-03-02T12:58:40;14.5;47.5
84440;SHT31;74675;51.980;5.730;2024-03-02T13:01:10;14.5;46.9
84440;SHT31;74675;51.980;5.730;2024-03-02T13:03:41;14.5;46.9
84440;SHT31;74675;51.980;5.730;2024-03-02T13:06:12;14.5;48.1
84440;SHT31;74675;51.980;5.730;2024-03-02T13:08:40;14.5;48.9
84440;SHT31;74675;51.980;5.730;2024-03-02T13:11:09;14.6;48.6
84440;SHT31;74675;51.980;5.730;2024-03-02T13:13:39;14.7;48.0
84440;SHT31;74675;51.980;5.730;2024-03-02T13:16:10;14.7;48.5
84440;SHT31;74675;51.980;5.730;2024-03-02T13:18:42;14.8;48.5
84440;SHT31;74675;51.980;5.730;2024-03-02T13:21:10;14.9;47.0
84440;SHT31;74675;51.980;5.730;2024-03-02T13:23:39;14.9;47.7
84440;SHT31;74675;51.980;5.730;2024-03-02T13:26:10;15.0;48.5
84440;SHT31;74675;51.980;5.730;2024-03-02T13:28:39;15.1;47.6
84440;SHT31;74675;51.980;5.730;2024-03-02T13:31:07;15.3;47.4
84440;SHT31;74675;51.980;5.730;2024-03-02T13:33:38;15.8;47.5
84440;SHT31;74675;51.980;5.730;2024-03-02T13:36:07;16.6;44.3
84440;SHT31;74675;51.980;5.730;2024-03-02T13:38:36;17.3;43.3
84440;SHT31;74675;51.980;5.730;2024-03-02T13:41:05;17.8;43.3
84440;SHT31;74675;51.980;5.730;2024-03-02T13:43:34;18.3;41.4
84440;SHT31;74675;51.980;5.730;2024-03-02T13:46:05;18.6;40.5
84440;SHT31;74675;51.980;5.730;2024-03-02T13:48:34;18.9;40.6
84440;SHT31;74675;51.980;5.730;2024-03-02T13:51:03;19.2;40.5
84440;SHT31;74675;51.980;5.730;2024-03-02T13:53:31;19.3;40.5
84440;SHT31;74675;51.980;5.730;2024-03-02T13:56:00;19.5;40.0
84440;SHT31;74675;51.980;5.730;2024-03-02T13:58:29;19.6;39.7
84440;SHT31;74675;51.980;5.730;2024-03-02T14:00:58;19.6;39.6
84440;SHT31;74675;51.980;5.730;2024-03-02T14:03:28;19.5;39.6
84440;SHT31;74675;51.980;5.730;2024-03-02T14:05:57;19.3;41.0
84440;SHT31;74675;51.980;5.730;2024-03-02T14:08:26;19.2;40.9
84440;SHT31;74675;51.980;5.730;2024-03-02T14:10:55;19.2;40.6
84440;SHT31;74675;51.980;5.730;2024-03-02T14:13:26;19.3;39.8
84440;SHT31;74675;51.980;5.730;2024-03-02T14:15:55;19.3;39.6
84440;SHT31;74675;51.980;5.730;2024-03-02T14:18:24;19.3;39.5
84440;SHT31;74675;51.980;5.730;2024-03-02T14:20:53;19.3;39.2
84440;SHT31;74675;51.980;5.730;2024-03-02T14:23:22;19.3;38.7
84440;SHT31;74675;51.980;5.730;2024-03-02T14:25:52;19.3;39.4
84440;SHT31;74675;51.980;5.730;2024-03-02T14:28:21;19.3;39.5
84440;SHT31;74675;51.980;5.730;2024-03-02T14:30:49;19.2;39.8
84440;SHT31;74675;51.980;5.730;2024-03-02T14:33:18;19.1;39.7
84440;SHT31;74675;51.980;5.730;2024-03-02T14:35:49;19.1;39.3
84440;SHT31;74675;51.980;5.730;2024-03-02T14:38:18;19.0;39.7
84440;SHT31;74675;51.980;5.730;2024-03-02T14:40:46;18.9;39.6
84440;SHT31;74675;51.980;5.730;2024-03-02T14:43:15;18.8;39.2
84440;SHT31;74675;51.980;5.730;2024-03-02T14:45:46;18.7;39.2
84440;SHT31;74675;51.980;5.730;2024-03-02T14:48:15;18.7;39.6
84440;SHT31;74675;51.980;5.730;2024-03-02T14:50:44;18.6;39.9
84440;SHT31;74675;51.980;5.730;2024-03-02T14:53:12;18.6;40.0
84440;SHT31;74675;51.980;5.730;2024-03-02T14:55:41;18.6;39.6
84440;SHT31;74675;51.980;5.730;2024-03-02T14:58:09;18.5;39.6
84440;SHT31;74675;51.980;5.730;2024-03-02T15:00:40;18.4;39.9
84440;SHT31;74675;51.980;5.730;2024-03-02T15:03:09;18.4;40.2
84440;SHT31;74675;51.980;5.730;2024-03-02T15:05:38;18.3;40.6
84440;SHT31;74675;51.980;5.730;2024-03-02T15:08:07;18.1;41.2
84440;SHT31;74675;51.980;5.730;2024-03-02T15:10:35;18.0;42.6
84440;SHT31;74675;51.980;5.730;2024-03-02T15:13:04;17.9;41.7
84440;SHT31;74675;51.980;5.730;2024-03-02T15:15:33;17.8;41.9
84440;SHT31;74675;51.980;5.730;2024-03-02T15:18:01;17.7;42.4
84440;SHT31;74675;51.980;5.730;2024-03-02T15:20:30;17.5;43.9
84440;SHT31;74675;51.980;5.730;2024-03-02T15:22:59;17.5;43.7
84440;SHT31;74675;51.980;5.730;2024-03-02T15:25:28;17.4;44.5
84440;SHT31;74675;51.980;5.730;2024-03-02T15:27:56;17.4;44.9
84440;SHT31;74675;51.980;5.730;2024-03-02T15:30:25;17.4;45.6
84440;SHT31;74675;51.980;5.730;2024-03-02T15:32:54;17.3;44.9
84440;SHT31;74675;51.980;5.730;2024-03-02T15:35:22;17.3;45.1
84440;SHT31;74675;51.980;5.730;2024-03-02T15:37:52;17.3;45.4
84440;SHT31;74675;51.980;5.730;2024-03-02T15:40:21;17.2;45.6
84440;SHT31;74675;51.980;5.730;2024-03-02T15:42:49;17.1;46.1
84440;SHT31;74675;51.980;5.730;2024-03-02T15:45:18;17.1;46.8
84440;SHT31;74675;51.980;5.730;2024-03-02T15:47:46;17.0;46.9
84440;SHT31;74675;51.980;5.730;2024-03-02T15:50:15;17.0;47.3
84440;SHT31;74675;51.980;5.730;2024-03-02T15:52:44;17.0;47.0
84440;SHT31;74675;51.980;5.730;2024-03-02T15:55:13;17.0;47.8
84440;SHT31;74675;51.980;5.730;2024-03-02T15:57:42;17.0;47.0
84440;SHT31;74675;51.980;5.730;2024-03-02T16:00:11;17.0;46.7
84440;SHT31;74675;51.980;5.730;2024-03-02T16:02:40;17.0;46.9
84440;SHT31;74675;51.980;5.730;2024-03-02T16:05:09;17.1;46.8
84440;SHT31;74675;51.980;5.730;2024-03-02T16:07:39;17.1;46.8
84440;SHT31;74675;51.980;5.730;2024-03-02T16:10:08;17.1;47.0
84440;SHT31;74675;51.980;5.730;2024-03-02T16:12:37;17.1;46.7
84440;SHT31;74675;51.980;5.730;2024-03-02T16:15:07;17.1;46.5
84440;SHT31;74675;51.980;5.730;2024-03-02T16:17:36;17.1;47.2
84440;SHT31;74675;51.980;5.730;2024-03-02T16:20:05;17.1;46.8